createdAt,value
2023-01-13T00:02:07.464Z,9.73
2023-01-13T00:05:05.595Z,5.37
2023-01-13T00:08:05.541Z,6.50
2023-01-13T00:11:03.363Z,6.73
2023-01-13T00:14:01.196Z,13.50
2023-01-13T00:16:58.970Z,8.80
2023-01-13T00:19:57.516Z,1.80
2023-01-13T00:22:56.801Z,7.53
2023-01-13T00:25:57.501Z,17.70
2023-01-13T00:28:59.332Z,9.87
2023-01-13T00:31:57.255Z,15.73
2023-01-13T00:34:55.509Z,7.03
2023-01-13T00:37:53.350Z,12.83
2023-01-13T00:41:07.534Z,8.33
2023-01-13T00:44:05.407Z,5.50
2023-01-13T00:47:03.224Z,13.10
2023-01-13T00:50:01.063Z,6.73
2023-01-13T00:53:01.138Z,2.73
2023-01-13T00:56:04.345Z,10.13
2023-01-13T00:59:02.611Z,6.13
2023-01-13T01:02:00.742Z,4.73
2023-01-13T01:05:00.413Z,8.53
2023-01-13T01:07:58.310Z,6.37
2023-01-13T01:11:05.652Z,6.67
2023-01-13T01:14:04.351Z,13.63
2023-01-13T01:17:02.408Z,4.07
2023-01-13T01:20:00.491Z,4.43
2023-01-13T01:22:58.192Z,4.60
2023-01-13T01:26:00.362Z,8.60
2023-01-13T01:28:58.284Z,5.07
2023-01-13T01:31:58.933Z,3.93
2023-01-13T01:34:56.641Z,5.33
2023-01-13T01:37:54.458Z,15.23
2023-01-13T01:40:52.207Z,4.17
2023-01-13T01:44:00.657Z,6.50
2023-01-13T01:46:59.009Z,4.47
2023-01-13T01:49:58.498Z,3.00
2023-01-13T01:53:06.309Z,8.93
2023-01-13T01:56:04.681Z,8.83
2023-01-13T01:59:02.642Z,5.23
2023-01-13T02:02:00.632Z,5.33
2023-01-13T02:04:59.713Z,11.20
2023-01-13T02:08:00.452Z,15.17
2023-01-13T02:10:58.210Z,11.40
2023-01-13T02:13:56.118Z,10.50
2023-01-13T02:17:27.925Z,7.53
2023-01-13T02:24:21.937Z,4.73
2023-01-13T02:27:54.841Z,22.20
2023-01-13T02:31:26.022Z,3.90
2023-01-13T02:34:33.887Z,7.82
2023-01-13T02:37:34.089Z,12.00
2023-01-13T02:41:21.260Z,12.70
2023-01-13T02:44:24.853Z,14.73
2023-01-13T02:47:26.851Z,18.77
2023-01-13T02:50:32.914Z,5.30
2023-01-13T02:53:36.755Z,6.63
2023-01-13T02:56:38.966Z,22.20
2023-01-13T02:59:37.955Z,14.80
2023-01-13T03:02:36.024Z,13.77
2023-01-13T03:05:34.737Z,18.37
2023-01-13T03:08:43.198Z,7.70
2023-01-13T03:11:56.131Z,6.83
2023-01-13T03:15:04.975Z,3.90
2023-01-13T03:18:13.369Z,8.17
2023-01-13T03:21:31.354Z,6.57
2023-01-13T03:24:40.142Z,14.30
2023-01-13T03:27:53.935Z,11.50
2023-01-13T03:30:59.427Z,19.03
2023-01-13T03:34:02.798Z,21.07
2023-01-13T03:37:05.313Z,14.07
2023-01-13T03:40:11.339Z,9.65
2023-01-13T03:43:30.737Z,20.77
2023-01-13T03:46:39.509Z,13.03
2023-01-13T03:49:48.846Z,15.40
2023-01-13T03:52:49.426Z,22.70
2023-01-13T03:55:52.566Z,16.93
2023-01-13T03:58:53.069Z,10.37
2023-01-13T04:02:03.379Z,12.67
2023-01-13T04:05:04.019Z,17.00
2023-01-13T04:08:14.973Z,10.53
2023-01-13T04:11:20.113Z,17.03
2023-01-13T04:14:21.556Z,14.97
2023-01-13T04:17:19.731Z,13.10
2023-01-13T04:20:17.865Z,11.97
2023-01-13T04:23:17.626Z,19.70
2023-01-13T04:26:15.520Z,16.63
2023-01-13T04:29:15.568Z,19.30
2023-01-13T04:32:13.654Z,18.37
2023-01-13T04:35:11.440Z,20.10
2023-01-13T04:38:12.823Z,17.30
2023-01-13T04:41:10.570Z,22.67
2023-01-13T04:44:08.439Z,14.90
2023-01-13T04:47:06.273Z,19.47
2023-01-13T04:50:04.511Z,29.30
2023-01-13T04:53:02.308Z,24.50
2023-01-13T04:56:00.246Z,27.07
2023-01-13T04:58:58.073Z,24.53
2023-01-13T05:01:56.306Z,12.73
2023-01-13T05:04:54.195Z,15.03
2023-01-13T05:07:52.051Z,19.20
2023-01-13T05:10:49.872Z,18.40
2023-01-13T05:14:03.028Z,22.47
2023-01-13T05:17:01.176Z,17.97
2023-01-13T05:19:59.077Z,25.13
2023-01-13T05:23:12.075Z,42.33
2023-01-13T05:26:10.071Z,38.00
2023-01-13T05:29:07.820Z,39.47
2023-01-13T05:32:08.354Z,60.37
2023-01-13T05:35:06.474Z,44.07
2023-01-13T05:38:04.377Z,33.60
2023-01-13T05:41:17.478Z,59.53
2023-01-13T05:44:16.015Z,55.73
2023-01-13T05:47:13.791Z,60.60
2023-01-13T05:50:12.435Z,67.80
2023-01-13T05:53:10.418Z,130.87
2023-01-13T05:56:09.388Z,125.20
2023-01-13T05:59:07.676Z,169.50
2023-01-13T06:02:05.556Z,156.80
2023-01-13T06:05:03.356Z,130.07
2023-01-13T06:08:02.723Z,157.43
2023-01-13T06:11:00.612Z,137.17
2023-01-13T06:13:58.455Z,130.70
2023-01-13T06:16:56.212Z,143.20
2023-01-13T06:19:54.073Z,131.60
2023-01-13T06:22:54.061Z,150.63
2023-01-13T06:26:21.038Z,159.50
2023-01-13T06:29:18.784Z,175.23
2023-01-13T06:32:20.487Z,132.63
2023-01-13T06:35:23.321Z,138.80
2023-01-13T06:38:23.589Z,162.88
2023-01-13T06:41:41.710Z,128.60
2023-01-13T06:44:39.994Z,126.10
2023-01-13T06:47:37.997Z,169.00
2023-01-13T06:50:36.135Z,123.00
2023-01-13T06:53:34.005Z,146.27
2023-01-13T06:56:32.290Z,153.00
2023-01-13T06:59:30.208Z,155.20
2023-01-13T07:02:28.906Z,139.57
2023-01-13T07:05:26.680Z,144.83
2023-01-13T07:08:25.463Z,148.53
2023-01-13T07:11:23.585Z,138.60
2023-01-13T07:14:36.853Z,144.80
2023-01-13T07:17:34.579Z,135.67
2023-01-13T07:20:32.523Z,152.10
2023-01-13T07:23:32.538Z,118.27
2023-01-13T07:26:30.504Z,128.10
2023-01-13T07:29:29.625Z,142.30
2023-01-13T07:32:27.906Z,125.33
2023-01-13T07:35:25.953Z,140.33
2023-01-13T07:38:23.993Z,140.90
2023-01-13T07:41:37.362Z,132.70
2023-01-13T07:44:35.298Z,122.30
2023-01-13T07:47:33.311Z,126.80
2023-01-13T07:50:31.196Z,129.70
2023-01-13T07:53:29.025Z,115.50
2023-01-13T07:56:26.961Z,134.20
2023-01-13T07:59:24.868Z,101.50
2023-01-13T08:02:23.201Z,113.73
2023-01-13T08:05:21.045Z,114.90
2023-01-13T08:08:19.964Z,122.77
2023-01-13T08:11:17.885Z,133.27
2023-01-13T08:14:15.798Z,123.43
2023-01-13T08:17:13.592Z,134.43
2023-01-13T08:20:12.376Z,116.37
2023-01-13T08:23:10.218Z,122.03
2023-01-13T08:26:11.616Z,102.63
2023-01-13T08:29:09.431Z,116.20
2023-01-13T08:32:08.979Z,131.40
2023-01-13T08:35:07.246Z,129.20
2023-01-13T08:38:05.615Z,116.10
2023-01-13T08:41:55.725Z,124.93
2023-01-13T08:44:55.345Z,138.43
2023-01-13T08:47:53.183Z,115.43
2023-01-13T08:50:51.574Z,122.33
2023-01-13T08:53:49.488Z,128.60
2023-01-13T08:56:48.068Z,95.60
2023-01-13T08:59:47.034Z,140.53
2023-01-13T09:02:46.528Z,120.03
2023-01-13T09:05:44.530Z,109.77
2023-01-13T09:08:42.616Z,125.70
2023-01-13T09:12:01.572Z,145.77
2023-01-13T09:14:59.901Z,122.27
2023-01-13T09:17:58.289Z,74.30
2023-01-13T09:20:56.418Z,112.97
2023-01-13T09:23:54.443Z,114.63
2023-01-13T09:26:52.678Z,136.87
2023-01-13T09:29:51.084Z,124.07
2023-01-13T09:32:49.418Z,135.60
2023-01-13T09:35:47.189Z,104.00
2023-01-13T09:38:45.110Z,104.47
2023-01-13T09:42:06.975Z,106.97
2023-01-13T09:45:13.889Z,101.70
2023-01-13T09:48:33.634Z,94.70
2023-01-13T09:51:50.718Z,90.20
2023-01-13T09:54:58.467Z,102.90
2023-01-13T09:57:57.102Z,106.43
2023-01-13T10:01:16.811Z,134.77
2023-01-13T10:04:16.653Z,119.13
2023-01-13T10:07:15.669Z,86.53
2023-01-13T10:10:20.875Z,128.87
2023-01-13T10:13:24.156Z,120.33
2023-01-13T10:19:31.731Z,110.00
2023-01-13T10:22:48.084Z,85.53
2023-01-13T10:25:56.232Z,132.23
2023-01-13T10:28:55.520Z,114.70
2023-01-13T10:31:55.101Z,130.53
2023-01-13T10:34:57.696Z,108.80
2023-01-13T10:37:58.483Z,113.72
2023-01-13T10:41:00.979Z,109.40
2023-01-13T10:44:04.034Z,93.47
2023-01-13T10:47:01.900Z,104.38
2023-01-13T10:50:06.762Z,123.30
2023-01-13T10:53:25.163Z,124.87
2023-01-13T10:56:24.854Z,83.87
2023-01-13T10:59:27.742Z,134.90
2023-01-13T11:02:31.263Z,114.60
2023-01-13T11:05:29.291Z,91.90
2023-01-13T11:08:30.608Z,133.23
2023-01-13T11:11:40.882Z,96.40
2023-01-13T11:14:43.865Z,107.00
2023-01-13T11:17:48.220Z,109.63
2023-01-13T11:20:48.322Z,113.93
2023-01-13T11:23:56.005Z,118.97
2023-01-13T11:27:18.606Z,89.13
2023-01-13T11:30:35.767Z,112.23
2023-01-13T11:33:41.546Z,112.80
2023-01-13T11:36:47.402Z,109.83
2023-01-13T11:40:04.096Z,97.40
2023-01-13T11:43:18.840Z,98.87
2023-01-13T11:46:16.653Z,74.03
2023-01-13T11:49:24.307Z,105.77
2023-01-13T11:52:57.083Z,73.40
2023-01-13T11:56:16.922Z,91.97
2023-01-13T11:59:45.195Z,92.17
2023-01-13T12:03:06.864Z,78.97
2023-01-13T12:06:27.161Z,88.20
2023-01-13T12:09:38.724Z,81.50
2023-01-13T12:12:59.477Z,92.57
2023-01-13T12:16:24.153Z,95.07
2023-01-13T12:19:28.695Z,93.37
2023-01-13T12:22:31.596Z,91.83
2023-01-13T12:25:37.900Z,89.70
2023-01-13T12:29:01.402Z,118.17
2023-01-13T12:32:02.999Z,102.27
2023-01-13T12:35:21.201Z,118.07
2023-01-13T12:38:29.881Z,112.63
2023-01-13T12:42:04.838Z,98.83
2023-01-13T12:45:27.310Z,107.70
2023-01-13T12:48:57.806Z,102.27
2023-01-13T12:52:16.494Z,93.80
2023-01-13T12:55:17.841Z,80.73
2023-01-13T12:58:17.325Z,97.70
2023-01-13T13:01:17.595Z,102.87
2023-01-13T13:04:21.402Z,68.13
2023-01-13T13:07:40.718Z,95.03
2023-01-13T13:10:43.804Z,110.63
2023-01-13T13:16:51.874Z,98.97
2023-01-13T13:19:50.463Z,93.67
2023-01-13T13:22:51.715Z,99.50
2023-01-13T13:26:03.927Z,103.27
2023-01-13T13:29:22.839Z,83.22
2023-01-13T13:32:49.996Z,108.47
2023-01-13T13:36:10.800Z,78.60
2023-01-13T13:39:43.609Z,114.73
2023-01-13T13:43:00.885Z,112.93
2023-01-13T13:46:14.297Z,78.30
2023-01-13T13:49:12.609Z,94.17
2023-01-13T13:52:23.132Z,100.93
2023-01-13T13:55:24.550Z,93.67
2023-01-13T13:58:23.558Z,93.07
2023-01-13T14:01:33.363Z,77.40
2023-01-13T14:04:36.866Z,117.33
2023-01-13T14:07:44.283Z,105.67
2023-01-13T14:10:45.476Z,128.37
2023-01-13T14:13:43.194Z,96.73
2023-01-13T14:16:41.966Z,117.70
2023-01-13T14:19:46.028Z,117.60
2023-01-13T14:22:54.239Z,93.40
2023-01-13T14:25:53.104Z,84.30
2023-01-13T14:28:51.250Z,100.00
2023-01-13T14:31:50.824Z,119.90
2023-01-13T14:34:48.754Z,105.43
2023-01-13T14:37:49.585Z,91.33
2023-01-13T14:40:47.736Z,90.57
2023-01-13T14:44:08.815Z,102.13
2023-01-13T14:47:21.318Z,115.50
2023-01-13T14:50:31.720Z,90.68
2023-01-13T14:53:39.767Z,73.83
2023-01-13T14:56:43.225Z,89.43
2023-01-13T14:59:52.430Z,96.17
2023-01-13T15:03:08.241Z,95.97
2023-01-13T15:06:24.017Z,107.70
2023-01-13T15:09:29.686Z,100.47
2023-01-13T15:12:43.882Z,112.30
2023-01-13T15:15:42.296Z,77.47
2023-01-13T15:18:42.035Z,64.17
2023-01-13T15:21:39.809Z,107.23
2023-01-13T15:24:37.732Z,89.97
2023-01-13T15:27:35.879Z,75.27
2023-01-13T15:30:34.457Z,93.73
2023-01-13T15:33:32.515Z,73.77
2023-01-13T15:36:32.775Z,71.43
2023-01-13T15:39:30.588Z,73.07
2023-01-13T15:42:43.790Z,93.63
2023-01-13T15:45:57.499Z,100.43
2023-01-13T15:49:30.503Z,90.00
2023-01-13T15:52:28.964Z,91.53
2023-01-13T15:55:26.844Z,91.80
2023-01-13T15:58:28.458Z,76.43
2023-01-13T16:01:26.489Z,81.57
2023-01-13T16:04:27.492Z,102.63
2023-01-13T16:07:26.651Z,119.13
2023-01-13T16:10:27.790Z,138.83
2023-01-13T16:13:25.805Z,93.60
2023-01-13T16:16:27.736Z,109.73
2023-01-13T16:19:25.660Z,95.80
2023-01-13T16:22:23.551Z,96.93
2023-01-13T16:25:24.246Z,92.03
2023-01-13T16:28:26.641Z,124.50
2023-01-13T16:31:32.640Z,89.88
2023-01-13T16:34:30.634Z,105.23
2023-01-13T16:37:29.570Z,86.40
2023-01-13T16:40:31.699Z,99.07
2023-01-13T16:43:29.613Z,100.40
2023-01-13T16:46:30.393Z,81.60
2023-01-13T16:49:28.365Z,65.60
2023-01-13T16:52:26.151Z,71.30
2023-01-13T16:55:25.084Z,73.43
2023-01-13T16:58:23.861Z,54.33
2023-01-13T17:01:25.426Z,61.50
2023-01-13T17:04:23.966Z,65.97
2023-01-13T17:07:21.969Z,67.50
2023-01-13T17:10:22.855Z,47.43
2023-01-13T17:13:21.584Z,51.23
2023-01-13T17:16:22.593Z,47.37
2023-01-13T17:19:20.649Z,47.27
2023-01-13T17:22:19.067Z,37.20
2023-01-13T17:25:17.135Z,53.03
2023-01-13T17:28:14.962Z,46.57
2023-01-13T17:31:12.884Z,51.13
2023-01-13T17:34:12.167Z,49.07
2023-01-13T17:37:10.942Z,59.23
2023-01-13T17:40:09.390Z,73.27
2023-01-13T17:43:07.293Z,88.20
2023-01-13T17:46:10.054Z,84.00
2023-01-13T17:49:19.495Z,74.63
2023-01-13T17:52:17.287Z,65.60
2023-01-13T17:55:15.305Z,73.10
2023-01-13T17:58:13.022Z,52.07
2023-01-13T18:01:15.845Z,90.27
2023-01-13T18:04:20.072Z,82.72
2023-01-13T18:07:17.942Z,75.13
2023-01-13T18:10:16.198Z,60.60
2023-01-13T18:13:14.354Z,45.50
2023-01-13T18:16:13.618Z,47.63
2023-01-13T18:19:27.585Z,27.17
2023-01-13T18:22:40.649Z,42.13
2023-01-13T18:25:55.827Z,44.83
2023-01-13T18:28:53.617Z,36.73
2023-01-13T18:31:53.162Z,27.80
2023-01-13T18:35:01.658Z,54.43
2023-01-13T18:38:03.122Z,60.10
2023-01-13T18:41:20.741Z,33.60
2023-01-13T18:44:18.708Z,34.10
2023-01-13T18:47:16.533Z,46.97
2023-01-13T18:50:14.622Z,28.10
2023-01-13T18:53:12.474Z,45.43
2023-01-13T18:56:12.637Z,27.03
2023-01-13T18:59:10.686Z,33.43
2023-01-13T19:02:15.680Z,32.63
2023-01-13T19:05:14.303Z,39.90
2023-01-13T19:08:12.514Z,27.50
2023-01-13T19:11:10.379Z,32.07
2023-01-13T19:14:08.342Z,35.07
2023-01-13T19:17:10.081Z,45.13
2023-01-13T19:20:08.727Z,39.50
2023-01-13T19:23:06.532Z,43.57
2023-01-13T19:26:08.024Z,49.57
2023-01-13T19:29:05.749Z,35.37
2023-01-13T19:32:04.042Z,55.00
2023-01-13T19:35:02.516Z,36.27
2023-01-13T19:38:00.554Z,42.03
2023-01-13T19:41:01.191Z,27.30
2023-01-13T19:44:14.924Z,42.10
2023-01-13T19:47:13.107Z,40.33
2023-01-13T19:50:11.645Z,43.57
2023-01-13T19:53:17.047Z,28.97
2023-01-13T19:56:15.888Z,43.47
2023-01-13T19:59:14.812Z,46.10
2023-01-13T20:05:49.100Z,26.80
2023-01-13T20:08:48.517Z,50.50
2023-01-13T20:12:10.946Z,37.37
2023-01-13T20:15:09.919Z,27.50
2023-01-13T20:18:08.678Z,36.50
2023-01-13T20:21:08.354Z,40.37
2023-01-13T20:24:06.877Z,48.50
2023-01-13T20:27:05.765Z,37.67
2023-01-13T20:30:04.091Z,35.83
2023-01-13T20:33:02.000Z,45.53
2023-01-13T20:36:00.354Z,41.53
2023-01-13T20:39:00.046Z,30.50
2023-01-13T20:42:13.278Z,36.63
2023-01-13T20:45:12.029Z,45.80
2023-01-13T20:48:09.895Z,45.33
2023-01-13T20:51:07.699Z,53.43
2023-01-13T20:54:06.056Z,60.47
2023-01-13T20:57:06.488Z,37.23
2023-01-13T21:00:06.209Z,40.93
2023-01-13T21:03:04.194Z,70.33
2023-01-13T21:06:02.407Z,68.67
2023-01-13T21:09:00.720Z,42.17
2023-01-13T21:12:14.367Z,33.47
2023-01-13T21:15:22.376Z,38.70
2023-01-13T21:18:35.721Z,36.87
2023-01-13T21:21:33.919Z,23.67
2023-01-13T21:24:31.829Z,48.23
2023-01-13T21:27:30.730Z,32.20
2023-01-13T21:30:28.805Z,16.03
2023-01-13T21:33:26.890Z,23.87
2023-01-13T21:36:25.403Z,20.30
2023-01-13T21:39:23.205Z,30.33
2023-01-13T21:42:36.640Z,26.20
2023-01-13T21:45:49.927Z,26.23
2023-01-13T21:48:47.792Z,58.30
2023-01-13T21:51:45.788Z,42.13
2023-01-13T21:54:59.098Z,28.70
2023-01-13T21:58:01.566Z,41.80
2023-01-13T22:01:03.092Z,15.43
2023-01-13T22:04:16.349Z,15.40
2023-01-13T22:07:14.293Z,27.93
2023-01-13T22:10:15.457Z,33.43
2023-01-13T22:13:28.603Z,16.67
2023-01-13T22:16:29.914Z,16.97
2023-01-13T22:19:27.869Z,23.50
2023-01-13T22:22:26.894Z,35.13
2023-01-13T22:25:24.806Z,13.10
2023-01-13T22:28:25.672Z,21.20
2023-01-13T22:31:24.926Z,22.03
2023-01-13T22:34:22.913Z,18.73
2023-01-13T22:37:42.938Z,29.43
2023-01-13T22:40:40.651Z,25.90
2023-01-13T22:43:39.637Z,25.40
2023-01-13T22:46:37.468Z,11.73
2023-01-13T22:49:35.529Z,34.60
2023-01-13T22:52:34.623Z,15.83
2023-01-13T22:55:32.530Z,18.80
2023-01-13T22:58:30.949Z,23.47
2023-01-13T23:01:31.917Z,24.77
2023-01-13T23:04:29.913Z,22.50
2023-01-13T23:07:27.897Z,8.73
2023-01-13T23:10:25.630Z,13.00
2023-01-13T23:13:23.479Z,17.30
2023-01-13T23:16:21.809Z,19.10
2023-01-13T23:19:20.162Z,24.77
2023-01-13T23:22:17.963Z,13.33
2023-01-13T23:25:15.903Z,24.33
2023-01-13T23:28:13.643Z,17.73
2023-01-13T23:31:14.990Z,22.73
2023-01-13T23:34:12.794Z,21.43
2023-01-13T23:37:10.629Z,21.00
2023-01-13T23:40:10.157Z,32.47
2023-01-13T23:43:08.005Z,19.33
2023-01-13T23:46:10.962Z,22.93
2023-01-13T23:52:06.645Z,26.80
2023-01-13T23:55:04.854Z,24.67
2023-01-13T23:58:02.715Z,14.20
